sensor_id;sensor_type;location;lat;lon;timestamp;P1;durP1;ratioP1;P2;durP2;ratioP2
27666;SDS011;15074;50.940;5.282;2022-08-18T00:01:50;60.25;;;37.58;;
27666;SDS011;15074;50.940;5.282;2022-08-18T00:04:38;58.00;;;35.70;;
27666;SDS011;15074;50.940;5.282;2022-08-18T00:07:05;51.00;;;35.63;;
27666;SDS011;15074;50.940;5.282;2022-08-18T00:09:33;49.28;;;34.85;;
27666;SDS011;15074;50.940;5.282;2022-08-18T00:12:00;56.35;;;35.05;;
27666;SDS011;15074;50.940;5.282;2022-08-18T00:14:28;50.63;;;35.17;;
27666;SDS011;15074;50.940;5.282;2022-08-18T00:16:54;57.70;;;37.08;;
27666;SDS011;15074;50.940;5.282;2022-08-18T00:19:21;50.17;;;35.08;;
27666;SDS011;15074;50.940;5.282;2022-08-18T00:21:47;55.85;;;36.63;;
27666;SDS011;15074;50.940;5.282;2022-08-18T00:24:12;57.13;;;36.97;;
27666;SDS011;15074;50.940;5.282;2022-08-18T00:26:38;50.85;;;35.38;;
27666;SDS011;15074;50.940;5.282;2022-08-18T00:29:04;48.35;;;33.88;;
27666;SDS011;15074;50.940;5.282;2022-08-18T00:31:30;40.80;;;31.25;;
27666;SDS011;15074;50.940;5.282;2022-08-18T00:33:56;40.08;;;30.70;;
27666;SDS011;15074;50.940;5.282;2022-08-18T00:36:22;40.67;;;30.13;;
27666;SDS011;15074;50.940;5.282;2022-08-18T00:38:47;46.53;;;32.67;;
27666;SDS011;15074;50.940;5.282;2022-08-18T00:41:13;52.25;;;35.65;;
27666;SDS011;15074;50.940;5.282;2022-08-18T00:43:43;50.67;;;34.65;;
27666;SDS011;15074;50.940;5.282;2022-08-18T00:46:19;51.88;;;33.83;;
27666;SDS011;15074;50.940;5.282;2022-08-18T00:48:49;49.70;;;34.20;;
27666;SDS011;15074;50.940;5.282;2022-08-18T00:51:39;54.35;;;36.28;;
27666;SDS011;15074;50.940;5.282;2022-08-18T00:56:41;45.78;;;33.10;;
27666;SDS011;15074;50.940;5.282;2022-08-18T01:01:57;38.42;;;31.83;;
27666;SDS011;15074;50.940;5.282;2022-08-18T01:04:44;38.60;;;30.75;;
27666;SDS011;15074;50.940;5.282;2022-08-18T01:07:21;41.97;;;31.10;;
27666;SDS011;15074;50.940;5.282;2022-08-18T01:10:09;41.83;;;29.05;;
27666;SDS011;15074;50.940;5.282;2022-08-18T01:12:40;48.13;;;31.33;;
27666;SDS011;15074;50.940;5.282;2022-08-18T01:15:06;49.28;;;33.50;;
27666;SDS011;15074;50.940;5.282;2022-08-18T01:17:32;54.97;;;36.03;;
27666;SDS011;15074;50.940;5.282;2022-08-18T01:20:17;67.07;;;37.60;;
27666;SDS011;15074;50.940;5.282;2022-08-18T01:23:14;82.35;;;40.28;;
27666;SDS011;15074;50.940;5.282;2022-08-18T01:25:41;67.63;;;38.03;;
27666;SDS011;15074;50.940;5.282;2022-08-18T01:28:36;81.00;;;41.65;;
27666;SDS011;15074;50.940;5.282;2022-08-18T01:31:04;81.45;;;39.75;;
27666;SDS011;15074;50.940;5.282;2022-08-18T01:33:32;90.68;;;43.08;;
27666;SDS011;15074;50.940;5.282;2022-08-18T01:36:10;89.93;;;43.72;;
27666;SDS011;15074;50.940;5.282;2022-08-18T01:38:45;90.68;;;43.45;;
27666;SDS011;15074;50.940;5.282;2022-08-18T01:41:14;92.97;;;43.88;;
27666;SDS011;15074;50.940;5.282;2022-08-18T01:43:40;98.40;;;44.85;;
27666;SDS011;15074;50.940;5.282;2022-08-18T01:46:06;114.97;;;49.15;;
27666;SDS011;15074;50.940;5.282;2022-08-18T01:48:33;134.90;;;55.05;;
27666;SDS011;15074;50.940;5.282;2022-08-18T01:51:04;135.85;;;54.20;;
27666;SDS011;15074;50.940;5.282;2022-08-18T01:53:32;133.93;;;55.00;;
27666;SDS011;15074;50.940;5.282;2022-08-18T01:55:58;140.07;;;52.58;;
27666;SDS011;15074;50.940;5.282;2022-08-18T01:58:25;154.32;;;52.78;;
27666;SDS011;15074;50.940;5.282;2022-08-18T02:00:54;176.90;;;53.83;;
27666;SDS011;15074;50.940;5.282;2022-08-18T02:03:22;145.60;;;54.60;;
27666;SDS011;15074;50.940;5.282;2022-08-18T02:05:54;185.27;;;53.40;;
27666;SDS011;15074;50.940;5.282;2022-08-18T02:08:23;146.18;;;49.88;;
27666;SDS011;15074;50.940;5.282;2022-08-18T02:10:49;150.82;;;49.53;;
27666;SDS011;15074;50.940;5.282;2022-08-18T02:13:15;153.77;;;50.78;;
27666;SDS011;15074;50.940;5.282;2022-08-18T02:15:41;133.63;;;49.13;;
27666;SDS011;15074;50.940;5.282;2022-08-18T02:18:12;174.73;;;52.38;;
27666;SDS011;15074;50.940;5.282;2022-08-18T02:20:41;135.07;;;51.35;;
27666;SDS011;15074;50.940;5.282;2022-08-18T02:23:08;183.30;;;54.63;;
27666;SDS011;15074;50.940;5.282;2022-08-18T02:25:35;137.20;;;52.60;;
27666;SDS011;15074;50.940;5.282;2022-08-18T02:28:01;225.60;;;53.92;;
27666;SDS011;15074;50.940;5.282;2022-08-18T02:30:27;134.57;;;51.17;;
27666;SDS011;15074;50.940;5.282;2022-08-18T02:32:53;179.77;;;53.85;;
27666;SDS011;15074;50.940;5.282;2022-08-18T02:35:20;163.88;;;53.63;;
27666;SDS011;15074;50.940;5.282;2022-08-18T02:37:46;247.07;;;58.45;;
27666;SDS011;15074;50.940;5.282;2022-08-18T02:40:12;197.60;;;55.90;;
27666;SDS011;15074;50.940;5.282;2022-08-18T02:42:38;157.70;;;55.53;;
27666;SDS011;15074;50.940;5.282;2022-08-18T02:45:04;192.40;;;56.58;;
27666;SDS011;15074;50.940;5.282;2022-08-18T02:47:30;147.10;;;55.00;;
27666;SDS011;15074;50.940;5.282;2022-08-18T02:49:56;149.52;;;54.00;;
27666;SDS011;15074;50.940;5.282;2022-08-18T02:52:22;144.38;;;57.58;;
27666;SDS011;15074;50.940;5.282;2022-08-18T02:54:57;146.30;;;57.35;;
27666;SDS011;15074;50.940;5.282;2022-08-18T02:57:25;162.20;;;57.00;;
27666;SDS011;15074;50.940;5.282;2022-08-18T02:59:52;163.07;;;57.80;;
27666;SDS011;15074;50.940;5.282;2022-08-18T03:02:18;146.05;;;54.75;;
27666;SDS011;15074;50.940;5.282;2022-08-18T03:04:44;195.70;;;57.25;;
27666;SDS011;15074;50.940;5.282;2022-08-18T03:07:11;160.75;;;56.35;;
27666;SDS011;15074;50.940;5.282;2022-08-18T03:09:36;137.68;;;54.78;;
27666;SDS011;15074;50.940;5.282;2022-08-18T03:12:03;145.75;;;52.35;;
27666;SDS011;15074;50.940;5.282;2022-08-18T03:14:31;174.57;;;57.30;;
27666;SDS011;15074;50.940;5.282;2022-08-18T03:16:57;184.52;;;57.60;;
27666;SDS011;15074;50.940;5.282;2022-08-18T03:19:27;152.77;;;53.05;;
27666;SDS011;15074;50.940;5.282;2022-08-18T03:21:53;144.27;;;53.30;;
27666;SDS011;15074;50.940;5.282;2022-08-18T03:24:22;134.15;;;51.42;;
27666;SDS011;15074;50.940;5.282;2022-08-18T03:26:49;140.70;;;51.72;;
27666;SDS011;15074;50.940;5.282;2022-08-18T03:29:16;134.38;;;54.03;;
27666;SDS011;15074;50.940;5.282;2022-08-18T03:31:43;138.00;;;53.58;;
27666;SDS011;15074;50.940;5.282;2022-08-18T03:34:09;154.63;;;55.75;;
27666;SDS011;15074;50.940;5.282;2022-08-18T03:36:36;150.40;;;56.38;;
27666;SDS011;15074;50.940;5.282;2022-08-18T03:39:07;138.63;;;53.20;;
27666;SDS011;15074;50.940;5.282;2022-08-18T03:41:35;124.22;;;49.90;;
27666;SDS011;15074;50.940;5.282;2022-08-18T03:44:03;162.38;;;52.58;;
27666;SDS011;15074;50.940;5.282;2022-08-18T03:46:29;159.55;;;52.80;;
27666;SDS011;15074;50.940;5.282;2022-08-18T03:48:55;147.25;;;54.80;;
27666;SDS011;15074;50.940;5.282;2022-08-18T03:51:23;145.15;;;53.08;;
27666;SDS011;15074;50.940;5.282;2022-08-18T03:53:51;132.38;;;51.22;;
27666;SDS011;15074;50.940;5.282;2022-08-18T03:56:19;141.40;;;51.97;;
27666;SDS011;15074;50.940;5.282;2022-08-18T03:58:48;137.18;;;53.20;;
27666;SDS011;15074;50.940;5.282;2022-08-18T04:01:17;145.75;;;53.90;;
27666;SDS011;15074;50.940;5.282;2022-08-18T04:03:46;152.82;;;53.75;;
27666;SDS011;15074;50.940;5.282;2022-08-18T04:06:15;138.80;;;55.22;;
27666;SDS011;15074;50.940;5.282;2022-08-18T04:08:42;145.70;;;53.67;;
27666;SDS011;15074;50.940;5.282;2022-08-18T04:11:10;139.93;;;51.78;;
27666;SDS011;15074;50.940;5.282;2022-08-18T04:13:37;136.52;;;53.67;;
27666;SDS011;15074;50.940;5.282;2022-08-18T04:16:03;137.43;;;52.83;;
27666;SDS011;15074;50.940;5.282;2022-08-18T04:18:29;126.20;;;50.10;;
27666;SDS011;15074;50.940;5.282;2022-08-18T04:20:55;138.23;;;51.30;;
27666;SDS011;15074;50.940;5.282;2022-08-18T04:23:23;139.55;;;52.55;;
27666;SDS011;15074;50.940;5.282;2022-08-18T04:25:55;134.38;;;52.05;;
27666;SDS011;15074;50.940;5.282;2022-08-18T04:28:22;121.32;;;49.35;;
27666;SDS011;15074;50.940;5.282;2022-08-18T04:30:48;128.95;;;50.95;;
27666;SDS011;15074;50.940;5.282;2022-08-18T04:33:13;127.10;;;51.22;;
27666;SDS011;15074;50.940;5.282;2022-08-18T04:35:39;119.20;;;48.72;;
27666;SDS011;15074;50.940;5.282;2022-08-18T04:38:04;122.03;;;48.88;;
27666;SDS011;15074;50.940;5.282;2022-08-18T04:40:31;117.15;;;48.05;;
27666;SDS011;15074;50.940;5.282;2022-08-18T04:42:58;115.95;;;47.53;;
27666;SDS011;15074;50.940;5.282;2022-08-18T04:45:25;108.93;;;47.00;;
27666;SDS011;15074;50.940;5.282;2022-08-18T04:47:51;103.13;;;46.20;;
27666;SDS011;15074;50.940;5.282;2022-08-18T04:50:17;108.70;;;46.30;;
27666;SDS011;15074;50.940;5.282;2022-08-18T04:52:43;110.47;;;45.38;;
27666;SDS011;15074;50.940;5.282;2022-08-18T04:55:27;110.75;;;47.67;;
27666;SDS011;15074;50.940;5.282;2022-08-18T04:57:53;117.75;;;46.95;;
27666;SDS011;15074;50.940;5.282;2022-08-18T05:00:19;122.40;;;47.33;;
27666;SDS011;15074;50.940;5.282;2022-08-18T05:02:45;122.15;;;48.75;;
27666;SDS011;15074;50.940;5.282;2022-08-18T05:05:11;108.63;;;45.63;;
27666;SDS011;15074;50.940;5.282;2022-08-18T05:07:41;119.45;;;47.50;;
27666;SDS011;15074;50.940;5.282;2022-08-18T05:10:08;116.95;;;46.88;;
27666;SDS011;15074;50.940;5.282;2022-08-18T05:12:36;111.70;;;46.60;;
27666;SDS011;15074;50.940;5.282;2022-08-18T05:15:05;116.00;;;47.10;;
27666;SDS011;15074;50.940;5.282;2022-08-18T05:17:32;125.63;;;52.33;;
27666;SDS011;15074;50.940;5.282;2022-08-18T05:20:03;118.32;;;49.83;;
27666;SDS011;15074;50.940;5.282;2022-08-18T05:22:36;125.35;;;54.10;;
27666;SDS011;15074;50.940;5.282;2022-08-18T05:25:03;116.22;;;50.08;;
27666;SDS011;15074;50.940;5.282;2022-08-18T05:27:33;112.97;;;49.03;;
27666;SDS011;15074;50.940;5.282;2022-08-18T05:30:00;118.15;;;51.28;;
27666;SDS011;15074;50.940;5.282;2022-08-18T05:32:26;119.00;;;46.20;;
27666;SDS011;15074;50.940;5.282;2022-08-18T05:34:55;109.53;;;47.58;;
27666;SDS011;15074;50.940;5.282;2022-08-18T05:42:26;99.43;;;42.90;;
27666;SDS011;15074;50.940;5.282;2022-08-18T05:44:57;104.57;;;43.20;;
27666;SDS011;15074;50.940;5.282;2022-08-18T05:49:51;101.35;;;43.90;;
27666;SDS011;15074;50.940;5.282;2022-08-18T05:52:28;92.65;;;42.00;;
27666;SDS011;15074;50.940;5.282;2022-08-18T05:54:57;102.97;;;42.72;;
27666;SDS011;15074;50.940;5.282;2022-08-18T05:57:53;93.13;;;41.17;;
27666;SDS011;15074;50.940;5.282;2022-08-18T06:00:25;85.05;;;39.88;;
27666;SDS011;15074;50.940;5.282;2022-08-18T06:02:57;94.70;;;40.15;;
27666;SDS011;15074;50.940;5.282;2022-08-18T06:05:39;96.90;;;41.40;;
27666;SDS011;15074;50.940;5.282;2022-08-18T06:08:16;89.47;;;41.33;;
27666;SDS011;15074;50.940;5.282;2022-08-18T06:10:47;92.43;;;40.67;;
27666;SDS011;15074;50.940;5.282;2022-08-18T06:13:14;91.30;;;39.78;;
27666;SDS011;15074;50.940;5.282;2022-08-18T06:29:40;89.68;;;39.97;;
27666;SDS011;15074;50.940;5.282;2022-08-18T06:38:06;78.25;;;37.97;;
27666;SDS011;15074;50.940;5.282;2022-08-18T06:41:15;78.63;;;37.42;;
27666;SDS011;15074;50.940;5.282;2022-08-18T06:43:49;80.15;;;37.05;;
27666;SDS011;15074;50.940;5.282;2022-08-18T06:46:25;79.55;;;37.60;;
27666;SDS011;15074;50.940;5.282;2022-08-18T06:49:27;70.97;;;36.58;;
27666;SDS011;15074;50.940;5.282;2022-08-18T06:52:17;69.72;;;36.00;;
27666;SDS011;15074;50.940;5.282;2022-08-18T06:54:43;68.07;;;36.30;;
27666;SDS011;15074;50.940;5.282;2022-08-18T06:57:10;77.00;;;37.92;;
27666;SDS011;15074;50.940;5.282;2022-08-18T06:59:54;71.75;;;37.40;;
27666;SDS011;15074;50.940;5.282;2022-08-18T07:05:26;71.43;;;35.63;;
27666;SDS011;15074;50.940;5.282;2022-08-18T07:08:13;67.28;;;35.83;;
27666;SDS011;15074;50.940;5.282;2022-08-18T07:10:49;70.53;;;36.63;;
27666;SDS011;15074;50.940;5.282;2022-08-18T07:13:24;63.85;;;35.22;;
27666;SDS011;15074;50.940;5.282;2022-08-18T07:16:12;69.78;;;38.53;;
27666;SDS011;15074;50.940;5.282;2022-08-18T07:19:05;67.60;;;36.58;;
27666;SDS011;15074;50.940;5.282;2022-08-18T07:21:40;66.45;;;35.47;;
27666;SDS011;15074;50.940;5.282;2022-08-18T07:24:08;63.20;;;36.78;;
27666;SDS011;15074;50.940;5.282;2022-08-18T07:26:56;67.63;;;37.83;;
27666;SDS011;15074;50.940;5.282;2022-08-18T07:29:32;68.75;;;38.88;;
27666;SDS011;15074;50.940;5.282;2022-08-18T07:32:03;70.65;;;38.33;;
27666;SDS011;15074;50.940;5.282;2022-08-18T07:34:43;73.53;;;38.67;;
27666;SDS011;15074;50.940;5.282;2022-08-18T07:37:21;68.70;;;37.78;;
27666;SDS011;15074;50.940;5.282;2022-08-18T07:48:11;60.35;;;35.15;;
27666;SDS011;15074;50.940;5.282;2022-08-18T07:56:10;57.05;;;35.25;;
27666;SDS011;15074;50.940;5.282;2022-08-18T07:59:04;60.00;;;33.92;;
27666;SDS011;15074;50.940;5.282;2022-08-18T08:06:51;48.97;;;33.40;;
27666;SDS011;15074;50.940;5.282;2022-08-18T08:15:31;44.25;;;29.38;;
27666;SDS011;15074;50.940;5.282;2022-08-18T08:18:04;30.75;;;24.50;;
27666;SDS011;15074;50.940;5.282;2022-08-18T08:20:44;32.08;;;25.90;;
27666;SDS011;15074;50.940;5.282;2022-08-18T08:28:42;26.60;;;23.88;;
27666;SDS011;15074;50.940;5.282;2022-08-18T08:36:41;27.88;;;24.88;;
27666;SDS011;15074;50.940;5.282;2022-08-18T08:39:18;26.42;;;23.63;;
27666;SDS011;15074;50.940;5.282;2022-08-18T08:41:58;27.48;;;24.73;;
27666;SDS011;15074;50.940;5.282;2022-08-18T08:44:34;28.30;;;24.42;;
27666;SDS011;15074;50.940;5.282;2022-08-18T08:47:22;26.88;;;22.67;;
27666;SDS011;15074;50.940;5.282;2022-08-18T08:49:53;25.15;;;22.58;;
27666;SDS011;15074;50.940;5.282;2022-08-18T08:55:04;26.95;;;23.80;;
27666;SDS011;15074;50.940;5.282;2022-08-18T08:57:41;24.98;;;22.65;;
27666;SDS011;15074;50.940;5.282;2022-08-18T09:00:14;25.65;;;22.45;;
27666;SDS011;15074;50.940;5.282;2022-08-18T09:02:59;29.90;;;21.98;;
27666;SDS011;15074;50.940;5.282;2022-08-18T09:08:30;22.90;;;19.75;;
27666;SDS011;15074;50.940;5.282;2022-08-18T09:11:05;19.02;;;17.52;;
27666;SDS011;15074;50.940;5.282;2022-08-18T09:22:03;15.18;;;13.82;;
27666;SDS011;15074;50.940;5.282;2022-08-18T09:24:50;12.90;;;11.73;;
27666;SDS011;15074;50.940;5.282;2022-08-18T09:30:07;13.15;;;12.13;;
27666;SDS011;15074;50.940;5.282;2022-08-18T09:33:00;12.55;;;11.27;;
27666;SDS011;15074;50.940;5.282;2022-08-18T09:35:52;11.93;;;11.02;;
27666;SDS011;15074;50.940;5.282;2022-08-18T09:38:44;12.48;;;11.52;;
27666;SDS011;15074;50.940;5.282;2022-08-18T09:42:01;12.18;;;11.07;;
27666;SDS011;15074;50.940;5.282;2022-08-18T09:45:35;12.52;;;11.52;;
27666;SDS011;15074;50.940;5.282;2022-08-18T09:49:53;12.65;;;11.75;;
27666;SDS011;15074;50.940;5.282;2022-08-18T09:59:54;8.40;;;7.80;;
27666;SDS011;15074;50.940;5.282;2022-08-18T10:07:41;8.98;;;8.27;;
27666;SDS011;15074;50.940;5.282;2022-08-18T10:15:56;6.57;;;6.07;;
27666;SDS011;15074;50.940;5.282;2022-08-18T10:21:20;7.47;;;6.88;;
27666;SDS011;15074;50.940;5.282;2022-08-18T10:28:58;6.82;;;6.32;;
27666;SDS011;15074;50.940;5.282;2022-08-18T10:31:26;6.80;;;6.30;;
27666;SDS011;15074;50.940;5.282;2022-08-18T10:39:22;6.88;;;6.35;;
27666;SDS011;15074;50.940;5.282;2022-08-18T10:42:18;7.13;;;6.50;;
27666;SDS011;15074;50.940;5.282;2022-08-18T10:44:47;6.35;;;5.75;;
27666;SDS011;15074;50.940;5.282;2022-08-18T10:47:23;4.93;;;4.43;;
27666;SDS011;15074;50.940;5.282;2022-08-18T10:49:52;4.70;;;4.28;;
27666;SDS011;15074;50.940;5.282;2022-08-18T10:57:30;5.10;;;4.70;;
27666;SDS011;15074;50.940;5.282;2022-08-18T11:00:04;5.10;;;4.60;;
27666;SDS011;15074;50.940;5.282;2022-08-18T11:02:39;4.85;;;4.47;;
27666;SDS011;15074;50.940;5.282;2022-08-18T11:05:33;6.70;;;6.20;;
27666;SDS011;15074;50.940;5.282;2022-08-18T11:08:01;5.70;;;5.30;;
27666;SDS011;15074;50.940;5.282;2022-08-18T11:10:42;5.50;;;5.10;;
27666;SDS011;15074;50.940;5.282;2022-08-18T11:19:09;6.10;;;5.63;;
27666;SDS011;15074;50.940;5.282;2022-08-18T11:21:39;5.30;;;4.90;;
27666;SDS011;15074;50.940;5.282;2022-08-18T11:24:09;5.70;;;5.30;;
27666;SDS011;15074;50.940;5.282;2022-08-18T11:26:39;5.88;;;5.40;;
27666;SDS011;15074;50.940;5.282;2022-08-18T11:29:25;6.55;;;6.05;;
27666;SDS011;15074;50.940;5.282;2022-08-18T11:31:54;7.00;;;6.40;;
27666;SDS011;15074;50.940;5.282;2022-08-18T11:34:30;6.93;;;5.35;;
27666;SDS011;15074;50.940;5.282;2022-08-18T11:37:02;6.97;;;6.47;;
27666;SDS011;15074;50.940;5.282;2022-08-18T11:39:31;6.40;;;5.90;;
27666;SDS011;15074;50.940;5.282;2022-08-18T11:41:57;7.10;;;6.50;;
27666;SDS011;15074;50.940;5.282;2022-08-18T11:44:24;6.90;;;6.43;;
27666;SDS011;15074;50.940;5.282;2022-08-18T11:46:55;6.40;;;6.00;;
27666;SDS011;15074;50.940;5.282;2022-08-18T11:50:05;7.10;;;6.60;;
27666;SDS011;15074;50.940;5.282;2022-08-18T11:52:49;7.70;;;7.10;;
27666;SDS011;15074;50.940;5.282;2022-08-18T11:55:21;7.43;;;6.93;;
27666;SDS011;15074;50.940;5.282;2022-08-18T11:57:54;8.23;;;7.63;;
27666;SDS011;15074;50.940;5.282;2022-08-18T12:03:37;9.10;;;8.50;;
27666;SDS011;15074;50.940;5.282;2022-08-18T12:06:12;8.57;;;8.05;;
27666;SDS011;15074;50.940;5.282;2022-08-18T12:08:47;10.27;;;9.43;;
27666;SDS011;15074;50.940;5.282;2022-08-18T12:11:18;8.95;;;8.30;;
27666;SDS011;15074;50.940;5.282;2022-08-18T12:13:47;8.60;;;8.00;;
27666;SDS011;15074;50.940;5.282;2022-08-18T12:16:39;7.70;;;7.03;;
27666;SDS011;15074;50.940;5.282;2022-08-18T12:19:08;8.35;;;7.75;;
27666;SDS011;15074;50.940;5.282;2022-08-18T12:21:40;7.60;;;7.10;;
27666;SDS011;15074;50.940;5.282;2022-08-18T12:24:12;7.90;;;7.30;;
27666;SDS011;15074;50.940;5.282;2022-08-18T12:26:47;7.57;;;7.07;;
27666;SDS011;15074;50.940;5.282;2022-08-18T12:29:14;7.57;;;7.03;;
27666;SDS011;15074;50.940;5.282;2022-08-18T12:31:43;7.30;;;6.80;;
27666;SDS011;15074;50.940;5.282;2022-08-18T12:34:09;6.25;;;5.95;;
27666;SDS011;15074;50.940;5.282;2022-08-18T12:36:35;6.75;;;6.25;;
27666;SDS011;15074;50.940;5.282;2022-08-18T12:39:01;6.28;;;5.88;;
27666;SDS011;15074;50.940;5.282;2022-08-18T12:41:27;6.50;;;6.10;;
27666;SDS011;15074;50.940;5.282;2022-08-18T12:43:53;6.60;;;6.20;;
27666;SDS011;15074;50.940;5.282;2022-08-18T12:46:19;6.15;;;5.68;;
27666;SDS011;15074;50.940;5.282;2022-08-18T12:48:45;6.45;;;6.03;;
27666;SDS011;15074;50.940;5.282;2022-08-18T12:51:10;6.70;;;6.15;;
27666;SDS011;15074;50.940;5.282;2022-08-18T12:53:37;6.17;;;5.77;;
27666;SDS011;15074;50.940;5.282;2022-08-18T12:56:08;6.65;;;6.18;;
27666;SDS011;15074;50.940;5.282;2022-08-18T12:58:49;6.43;;;6.03;;
27666;SDS011;15074;50.940;5.282;2022-08-18T13:01:16;5.85;;;5.47;;
27666;SDS011;15074;50.940;5.282;2022-08-18T13:03:43;5.60;;;5.20;;
27666;SDS011;15074;50.940;5.282;2022-08-18T13:06:10;5.90;;;5.50;;
27666;SDS011;15074;50.940;5.282;2022-08-18T13:08:37;5.68;;;5.28;;
27666;SDS011;15074;50.940;5.282;2022-08-18T13:11:03;6.75;;;6.32;;
27666;SDS011;15074;50.940;5.282;2022-08-18T13:13:34;5.38;;;4.88;;
27666;SDS011;15074;50.940;5.282;2022-08-18T13:16:04;5.60;;;5.20;;
27666;SDS011;15074;50.940;5.282;2022-08-18T13:18:32;5.07;;;4.68;;
27666;SDS011;15074;50.940;5.282;2022-08-18T13:20:59;4.97;;;4.67;;
27666;SDS011;15074;50.940;5.282;2022-08-18T13:23:25;5.57;;;5.18;;
27666;SDS011;15074;50.940;5.282;2022-08-18T13:25:52;5.80;;;5.40;;
27666;SDS011;15074;50.940;5.282;2022-08-18T13:28:19;4.88;;;4.57;;
27666;SDS011;15074;50.940;5.282;2022-08-18T13:30:44;4.07;;;3.78;;
27666;SDS011;15074;50.940;5.282;2022-08-18T13:33:10;3.50;;;3.30;;
27666;SDS011;15074;50.940;5.282;2022-08-18T13:35:36;2.72;;;2.45;;
27666;SDS011;15074;50.940;5.282;2022-08-18T13:38:02;2.75;;;2.55;;
27666;SDS011;15074;50.940;5.282;2022-08-18T13:40:29;2.70;;;2.50;;
27666;SDS011;15074;50.940;5.282;2022-08-18T13:42:55;3.17;;;2.97;;
27666;SDS011;15074;50.940;5.282;2022-08-18T13:45:21;2.88;;;2.67;;
27666;SDS011;15074;50.940;5.282;2022-08-18T13:47:47;2.42;;;2.22;;
27666;SDS011;15074;50.940;5.282;2022-08-18T13:50:13;3.03;;;2.33;;
27666;SDS011;15074;50.940;5.282;2022-08-18T13:52:40;2.80;;;2.47;;
27666;SDS011;15074;50.940;5.282;2022-08-18T13:55:08;2.97;;;2.00;;
27666;SDS011;15074;50.940;5.282;2022-08-18T13:57:37;3.15;;;2.95;;
27666;SDS011;15074;50.940;5.282;2022-08-18T14:00:05;2.72;;;2.53;;
27666;SDS011;15074;50.940;5.282;2022-08-18T14:02:36;3.17;;;2.88;;
27666;SDS011;15074;50.940;5.282;2022-08-18T14:05:03;2.58;;;2.38;;
27666;SDS011;15074;50.940;5.282;2022-08-18T14:07:28;2.60;;;2.40;;
27666;SDS011;15074;50.940;5.282;2022-08-18T14:09:55;4.72;;;2.42;;
27666;SDS011;15074;50.940;5.282;2022-08-18T14:12:22;2.10;;;2.00;;
27666;SDS011;15074;50.940;5.282;2022-08-18T14:14:48;2.67;;;2.38;;
27666;SDS011;15074;50.940;5.282;2022-08-18T14:17:15;2.50;;;2.30;;
27666;SDS011;15074;50.940;5.282;2022-08-18T14:19:41;2.70;;;2.50;;
27666;SDS011;15074;50.940;5.282;2022-08-18T14:22:25;2.63;;;2.42;;
27666;SDS011;15074;50.940;5.282;2022-08-18T14:25:09;2.70;;;2.50;;
27666;SDS011;15074;50.940;5.282;2022-08-18T14:27:53;3.60;;;2.85;;
27666;SDS011;15074;50.940;5.282;2022-08-18T14:30:18;2.60;;;2.40;;
27666;SDS011;15074;50.940;5.282;2022-08-18T14:32:44;3.05;;;2.75;;
27666;SDS011;15074;50.940;5.282;2022-08-18T14:35:11;2.85;;;2.65;;
27666;SDS011;15074;50.940;5.282;2022-08-18T14:37:39;3.15;;;2.85;;
27666;SDS011;15074;50.940;5.282;2022-08-18T14:40:05;2.58;;;2.38;;
27666;SDS011;15074;50.940;5.282;2022-08-18T14:44:58;2.83;;;2.60;;
27666;SDS011;15074;50.940;5.282;2022-08-18T14:47:24;2.70;;;2.50;;
27666;SDS011;15074;50.940;5.282;2022-08-18T14:49:53;2.63;;;2.42;;
27666;SDS011;15074;50.940;5.282;2022-08-18T14:52:21;3.17;;;2.92;;
27666;SDS011;15074;50.940;5.282;2022-08-18T14:54:47;3.60;;;3.30;;
27666;SDS011;15074;50.940;5.282;2022-08-18T14:57:13;3.80;;;3.25;;
27666;SDS011;15074;50.940;5.282;2022-08-18T14:59:39;3.53;;;3.28;;
27666;SDS011;15074;50.940;5.282;2022-08-18T15:02:06;3.83;;;3.53;;
27666;SDS011;15074;50.940;5.282;2022-08-18T15:04:34;4.10;;;3.80;;
27666;SDS011;15074;50.940;5.282;2022-08-18T15:07:00;4.43;;;4.03;;
27666;SDS011;15074;50.940;5.282;2022-08-18T15:09:26;4.43;;;4.10;;
27666;SDS011;15074;50.940;5.282;2022-08-18T15:11:56;4.70;;;4.30;;
27666;SDS011;15074;50.940;5.282;2022-08-18T15:14:23;4.03;;;3.83;;
27666;SDS011;15074;50.940;5.282;2022-08-18T15:16:50;4.65;;;4.35;;
27666;SDS011;15074;50.940;5.282;2022-08-18T15:19:16;4.90;;;4.50;;
27666;SDS011;15074;50.940;5.282;2022-08-18T15:21:42;4.65;;;4.28;;
27666;SDS011;15074;50.940;5.282;2022-08-18T15:24:26;5.28;;;4.40;;
27666;SDS011;15074;50.940;5.282;2022-08-18T15:27:10;4.35;;;4.05;;
27666;SDS011;15074;50.940;5.282;2022-08-18T15:29:37;4.80;;;4.50;;
27666;SDS011;15074;50.940;5.282;2022-08-18T15:32:12;7.50;;;4.22;;
27666;SDS011;15074;50.940;5.282;2022-08-18T15:34:39;5.03;;;4.63;;
27666;SDS011;15074;50.940;5.282;2022-08-18T15:37:07;4.93;;;4.60;;
27666;SDS011;15074;50.940;5.282;2022-08-18T15:39:33;5.38;;;4.97;;
27666;SDS011;15074;50.940;5.282;2022-08-18T15:41:59;5.80;;;5.40;;
27666;SDS011;15074;50.940;5.282;2022-08-18T15:44:29;6.95;;;5.07;;
27666;SDS011;15074;50.940;5.282;2022-08-18T15:46:54;5.03;;;4.47;;
27666;SDS011;15074;50.940;5.282;2022-08-18T15:49:20;5.75;;;5.35;;
27666;SDS011;15074;50.940;5.282;2022-08-18T15:51:47;5.32;;;5.03;;
27666;SDS011;15074;50.940;5.282;2022-08-18T15:54:13;5.05;;;4.65;;
27666;SDS011;15074;50.940;5.282;2022-08-18T15:56:40;5.07;;;4.75;;
27666;SDS011;15074;50.940;5.282;2022-08-18T15:59:05;5.45;;;5.05;;
27666;SDS011;15074;50.940;5.282;2022-08-18T16:01:34;5.90;;;5.40;;
27666;SDS011;15074;50.940;5.282;2022-08-18T16:04:01;5.47;;;5.07;;
27666;SDS011;15074;50.940;5.282;2022-08-18T16:06:28;5.43;;;5.03;;
27666;SDS011;15074;50.940;5.282;2022-08-18T16:08:55;5.68;;;5.28;;
27666;SDS011;15074;50.940;5.282;2022-08-18T16:11:20;5.88;;;5.47;;
27666;SDS011;15074;50.940;5.282;2022-08-18T16:13:47;5.50;;;5.20;;
27666;SDS011;15074;50.940;5.282;2022-08-18T16:18:43;5.90;;;5.40;;
27666;SDS011;15074;50.940;5.282;2022-08-18T16:21:11;5.57;;;5.17;;
27666;SDS011;15074;50.940;5.282;2022-08-18T16:23:42;6.22;;;5.72;;
27666;SDS011;15074;50.940;5.282;2022-08-18T16:26:09;6.63;;;5.55;;
27666;SDS011;15074;50.940;5.282;2022-08-18T16:28:41;6.05;;;5.55;;
27666;SDS011;15074;50.940;5.282;2022-08-18T16:31:10;6.60;;;6.05;;
27666;SDS011;15074;50.940;5.282;2022-08-18T16:33:39;7.25;;;5.78;;
27666;SDS011;15074;50.940;5.282;2022-08-18T16:36:07;5.57;;;5.07;;
27666;SDS011;15074;50.940;5.282;2022-08-18T16:38:35;5.70;;;5.40;;
27666;SDS011;15074;50.940;5.282;2022-08-18T16:41:06;5.70;;;5.30;;
27666;SDS011;15074;50.940;5.282;2022-08-18T16:43:33;5.65;;;5.22;;
27666;SDS011;15074;50.940;5.282;2022-08-18T16:46:02;6.18;;;5.68;;
27666;SDS011;15074;50.940;5.282;2022-08-18T16:48:28;6.43;;;5.97;;
27666;SDS011;15074;50.940;5.282;2022-08-18T16:50:55;6.00;;;5.50;;
27666;SDS011;15074;50.940;5.282;2022-08-18T16:53:21;5.50;;;5.03;;
27666;SDS011;15074;50.940;5.282;2022-08-18T16:55:47;6.05;;;5.65;;
27666;SDS011;15074;50.940;5.282;2022-08-18T16:58:13;6.32;;;5.93;;
27666;SDS011;15074;50.940;5.282;2022-08-18T17:00:58;6.57;;;6.18;;
27666;SDS011;15074;50.940;5.282;2022-08-18T17:03:43;6.47;;;6.05;;
27666;SDS011;15074;50.940;5.282;2022-08-18T17:06:27;6.25;;;5.85;;
27666;SDS011;15074;50.940;5.282;2022-08-18T17:08:54;6.32;;;5.82;;
27666;SDS011;15074;50.940;5.282;2022-08-18T17:11:20;6.88;;;6.30;;
27666;SDS011;15074;50.940;5.282;2022-08-18T17:13:47;6.72;;;6.18;;